Aeroporto :
LOGIN :

Iscrizione | Disclaimer

   EN    FR    IT 

 










Sommario :    VFR   VFR Marginale   IFR   IFR Intensivo   IFR Molto Intensivo
Visibilità : 
Base nubi : 
>= 8 km
>= 3000ft
5 / 8 km
1000 / 3000 ft
1500m / 5 km
500 / 1000 ft
800 / 1500m
200 / 500 ft
< 800m
< 200 ft
Simboli :   Temporali  Nebbia  Neve Forte  Precipitazioni Forti  Vento > 20 kt
SIGMETs :   Varie  Temporali  Ghiacco  Turbolenza  Onda orograficha  Ceneri Vulcaniche






- Altitudine del aeroporto : 404 ft
- Codice IATA : WRO


EPWR - Wroclaw

ULTIMO METAR :
  • 062030Z 23012KT CAVOK 03/M04 Q1011

METARs OBSOLETI :
  • 062000Z 22014KT CAVOK 03/M04 Q1011
  • 061930Z 22014KT CAVOK 03/M04 Q1011
  • 061900Z 22013KT CAVOK 03/M04 Q1011
  • 061830Z 22013KT CAVOK 03/M04 Q1012
  • 061800Z 22010KT CAVOK 02/M04 Q1012

TAF TAF EPWR
Valido dal 06 a 21 ore il 07 a 21 ore UTC


062030Z 0621/0721 21012KT CAVOK
TEMPO 0621/0708 21015G30KT
BECMG 0700/0703 BKN014
PROB30
TEMPO 0702/0709 4000 -RA BKN007
BECMG 0708/0710 27015G25KT
PROB30
TEMPO 0712/0718 BKN014CB



MetMap, La meteo Aeronautica in un colpo d'occhio ! - Copyright ORBIFLY Dicembre 2007 - Disclaimer

ORBIFLY MET'MAP TEAM :

Programmazione e sviluppo : Alexandra Zaïnal
Concezione : Baudouin d'Aumeries
Aiuto per la programmazione : Marc-Olivier Méhu
Supporto tecnico e logistico : Manuel Goepfert
Aiuto per la traduzione : Arnaldo La Scala

Contatto : metmap@orbifly.com




FONTI E CREDITI :

   NOAA